Time;durP1;ratioP1;P1;durP2;ratioP2;P2;SDS_P1;SDS_P2;PMS_P1;PMS_P2;Temp;Humidity;BMP_temperature;BMP_pressure;BME280_temperature;BME280_humidity;BME280_pressure;Samples;Min_cycle;Max_cycle;Signal;HPM_P1;HPM_P2
2022/05/31 00:02:00;;;;;;;2.60;2.30;;;5.90;99.90;;;;;;5106347;27;20227;-79
2022/05/31 00:04:27;;;;;;;2.67;2.10;;;5.90;99.90;;;;;;5106160;27;20828;-79
2022/05/31 00:06:54;;;;;;;3.87;2.50;;;5.90;99.90;;;;;;5123203;27;20217;-79
2022/05/31 00:09:21;;;;;;;5.30;2.70;;;5.90;99.90;;;;;;5129490;27;20338;-80
2022/05/31 00:11:48;;;;;;;4.83;2.77;;;5.90;99.90;;;;;;5112479;27;20224;-80
2022/05/31 00:14:17;;;;;;;4.03;2.90;;;5.90;99.90;;;;;;5129468;27;20232;-80
2022/05/31 00:16:45;;;;;;;3.30;2.53;;;5.90;99.90;;;;;;5108579;27;20245;-80
2022/05/31 00:19:12;;;;;;;3.33;2.47;;;5.90;99.90;;;;;;5113509;27;20231;-80
2022/05/31 00:21:46;;;;;;;2.77;2.47;;;5.90;99.90;;;;;;5107934;27;20234;-80
2022/05/31 00:24:16;;;;;;;3.10;2.40;;;5.90;99.90;;;;;;5108086;27;20286;-80
2022/05/31 00:26:43;;;;;;;3.17;2.40;;;5.80;99.90;;;;;;5122689;27;20327;-80
2022/05/31 00:29:11;;;;;;;4.83;3.03;;;5.80;99.90;;;;;;5132090;27;20255;-80
2022/05/31 00:31:43;;;;;;;4.47;3.20;;;5.80;99.90;;;;;;5117374;27;20677;-80
2022/05/31 00:34:11;;;;;;;3.00;2.70;;;5.80;99.90;;;;;;5110940;27;20288;-80
2022/05/31 00:36:40;;;;;;;2.80;2.53;;;5.80;99.90;;;;;;5110929;27;20219;-80
2022/05/31 00:39:07;;;;;;;3.63;2.93;;;5.70;99.90;;;;;;5127932;27;20219;-80
2022/05/31 00:41:35;;;;;;;3.40;2.67;;;5.70;99.90;;;;;;5118168;27;20219;-81
2022/05/31 00:44:06;;;;;;;3.30;2.60;;;5.70;99.90;;;;;;5133711;27;20288;-81
2022/05/31 00:46:45;;;;;;;2.40;2.20;;;5.70;99.90;;;;;;5109637;27;20299;-81
2022/05/31 00:49:16;;;;;;;5.80;2.70;;;5.60;99.90;;;;;;5108603;27;20227;-81
2022/05/31 00:51:47;;;;;;;3.20;2.77;;;5.60;99.90;;;;;;5136014;27;20221;-81
2022/05/31 00:54:21;;;;;;;3.37;2.70;;;5.60;99.90;;;;;;5128363;27;20288;-80
2022/05/31 00:56:49;;;;;;;4.30;2.87;;;5.60;99.90;;;;;;5109244;27;20231;-80
2022/05/31 00:59:20;;;;;;;3.53;3.00;;;5.50;99.90;;;;;;5127052;27;20636;-81
2022/05/31 01:01:53;;;;;;;4.03;2.90;;;5.50;99.90;;;;;;5105011;27;20229;-81
2022/05/31 01:04:25;;;;;;;4.90;2.47;;;5.60;99.90;;;;;;5103142;27;21696;-81
2022/05/31 01:06:55;;;;;;;3.47;2.30;;;5.50;99.90;;;;;;5114421;27;20269;-80
2022/05/31 01:09:23;;;;;;;2.87;2.33;;;5.40;99.90;;;;;;5112597;27;20227;-81
2022/05/31 01:12:21;;;;;;;2.97;2.70;;;5.50;99.90;;;;;;5128977;27;20239;-82
2022/05/31 01:15:08;;;;;;;3.10;2.57;;;5.40;99.90;;;;;;5126819;27;20233;-82
2022/05/31 01:18:00;;;;;;;2.57;2.37;;;5.40;99.90;;;;;;5104211;27;20580;-82
2022/05/31 01:20:57;;;;;;;6.27;3.27;;;5.30;99.90;;;;;;5121849;27;20295;-80
2022/05/31 01:23:41;;;;;;;4.97;3.07;;;5.30;99.90;;;;;;5105331;27;20228;-82
2022/05/31 01:26:15;;;;;;;3.80;3.00;;;5.30;99.90;;;;;;5124142;27;20226;-81
2022/05/31 01:28:53;;;;;;;4.20;2.50;;;5.20;99.90;;;;;;5112500;27;20230;-80
2022/05/31 01:31:30;;;;;;;3.97;3.47;;;5.20;99.90;;;;;;5110616;27;20240;-81
2022/05/31 01:34:07;;;;;;;4.13;2.60;;;5.20;99.90;;;;;;5112990;27;20874;-80
2022/05/31 01:36:40;;;;;;;4.13;2.80;;;5.20;99.90;;;;;;5122382;27;20283;-80
2022/05/31 01:39:12;;;;;;;3.00;2.70;;;5.20;99.90;;;;;;5108026;27;20224;-80
2022/05/31 01:41:45;;;;;;;3.70;3.23;;;5.20;99.90;;;;;;5114654;27;20718;-80
2022/05/31 01:44:15;;;;;;;4.07;2.97;;;5.10;99.90;;;;;;5114157;27;20541;-81
2022/05/31 01:46:43;;;;;;;5.33;3.00;;;5.10;99.90;;;;;;5128236;27;20327;-81
2022/05/31 01:49:13;;;;;;;4.37;3.10;;;5.00;99.90;;;;;;5113565;27;20304;-81
2022/05/31 01:51:43;;;;;;;4.57;3.17;;;5.10;99.90;;;;;;5133517;27;21198;-81
2022/05/31 01:54:11;;;;;;;5.80;3.37;;;5.10;99.90;;;;;;5113030;27;20247;-80
2022/05/31 01:56:39;;;;;;;5.80;3.27;;;5.00;99.90;;;;;;5109437;27;20596;-80
2022/05/31 01:59:07;;;;;;;4.23;3.33;;;5.00;99.90;;;;;;5112695;27;20223;-79
2022/05/31 02:01:36;;;;;;;5.57;3.63;;;5.00;99.90;;;;;;5112363;27;20222;-80
2022/05/31 02:04:04;;;;;;;3.90;2.93;;;5.00;99.90;;;;;;5105761;28;20230;-81
2022/05/31 02:06:33;;;;;;;3.90;3.50;;;5.00;99.90;;;;;;5127711;27;20219;-80
2022/05/31 02:09:03;;;;;;;4.93;3.50;;;5.00;99.90;;;;;;5112601;27;20534;-80
2022/05/31 02:11:31;;;;;;;4.83;3.30;;;5.00;99.90;;;;;;5111222;27;20697;-80
2022/05/31 02:14:08;;;;;;;4.60;3.60;;;5.00;99.90;;;;;;5106657;27;20228;-80
2022/05/31 02:16:35;;;;;;;5.70;3.70;;;4.90;99.90;;;;;;5109880;27;20477;-80
2022/05/31 02:19:27;;;;;;;3.53;3.07;;;4.90;99.90;;;;;;5091522;27;20653;-81
2022/05/31 02:22:01;;;;;;;4.53;3.37;;;4.90;99.90;;;;;;5110406;27;20616;-81
2022/05/31 02:24:29;;;;;;;5.00;3.73;;;4.90;99.90;;;;;;5102468;27;20228;-81
2022/05/31 02:26:56;;;;;;;4.70;3.57;;;4.90;99.90;;;;;;5110115;27;20226;-81
2022/05/31 02:29:27;;;;;;;3.20;2.90;;;4.90;99.90;;;;;;5106702;27;20228;-81
2022/05/31 02:31:56;;;;;;;4.07;3.40;;;4.80;99.90;;;;;;5112480;27;20284;-81
2022/05/31 02:34:27;;;;;;;5.60;3.70;;;4.80;99.90;;;;;;5124915;27;20273;-79
2022/05/31 02:36:54;;;;;;;4.20;3.40;;;4.80;99.90;;;;;;5102961;27;20294;-81
2022/05/31 02:39:22;;;;;;;5.70;3.50;;;4.80;99.90;;;;;;5106818;27;20248;-80
2022/05/31 02:41:52;;;;;;;4.73;3.03;;;4.70;99.90;;;;;;5110875;27;20647;-81
2022/05/31 02:44:20;;;;;;;6.27;3.50;;;4.70;99.90;;;;;;5126517;27;20224;-81
2022/05/31 02:46:47;;;;;;;5.37;2.97;;;4.70;99.90;;;;;;5109068;27;20384;-81
2022/05/31 02:49:14;;;;;;;4.43;3.30;;;4.60;99.90;;;;;;5109948;27;20644;-80
2022/05/31 02:51:43;;;;;;;3.30;2.70;;;4.60;99.90;;;;;;5128530;27;20238;-80
2022/05/31 02:54:12;;;;;;;3.20;2.90;;;4.60;99.90;;;;;;5109538;28;20226;-82
2022/05/31 02:56:59;;;;;;;3.70;2.90;;;4.60;99.90;;;;;;5126921;27;20227;-80
2022/05/31 02:59:44;;;;;;;5.13;3.53;;;4.50;99.90;;;;;;5129472;28;20252;-82
2022/05/31 03:02:29;;;;;;;3.50;2.93;;;4.50;99.90;;;;;;5129967;27;20304;-82
2022/05/31 03:05:15;;;;;;;3.57;2.70;;;4.50;99.90;;;;;;5124499;27;20362;-84
2022/05/31 03:08:20;;;;;;;7.43;2.87;;;4.40;99.90;;;;;;5026080;28;20223;-82
2022/05/31 03:11:11;;;;;;;3.03;2.70;;;4.40;99.90;;;;;;5020517;28;21049;-82
2022/05/31 03:13:39;;;;;;;6.33;3.63;;;4.30;99.90;;;;;;5060545;28;20238;-82
2022/05/31 03:16:09;;;;;;;4.90;3.27;;;4.30;99.90;;;;;;5111516;27;20231;-82
2022/05/31 03:18:40;;;;;;;4.20;3.03;;;4.30;99.90;;;;;;5125897;27;20276;-82
2022/05/31 03:21:11;;;;;;;4.30;3.00;;;4.20;99.90;;;;;;5111548;27;20251;-80
2022/05/31 03:23:43;;;;;;;4.87;3.53;;;4.20;99.90;;;;;;5113003;27;20232;-80
2022/05/31 03:26:14;;;;;;;5.27;3.50;;;4.20;99.90;;;;;;5114317;27;20383;-80
2022/05/31 03:28:42;;;;;;;4.20;3.27;;;4.20;99.90;;;;;;5112962;27;20238;-82
2022/05/31 03:31:10;;;;;;;3.53;2.80;;;4.20;99.90;;;;;;5111093;27;20856;-81
2022/05/31 03:33:37;;;;;;;3.57;2.87;;;4.20;99.90;;;;;;5114814;27;20231;-81
2022/05/31 03:36:05;;;;;;;4.17;3.30;;;4.20;99.90;;;;;;5116790;27;20226;-81
2022/05/31 03:38:39;;;;;;;4.17;3.73;;;4.20;99.90;;;;;;5116331;27;20253;-81
2022/05/31 03:41:08;;;;;;;3.40;3.10;;;4.20;99.90;;;;;;5117165;27;20245;-81
2022/05/31 03:43:42;;;;;;;4.53;3.07;;;4.20;99.90;;;;;;5112008;27;20231;-81
2022/05/31 03:46:22;;;;;;;4.57;3.43;;;4.20;99.90;;;;;;5127848;27;20251;-84
2022/05/31 03:48:59;;;;;;;4.17;3.00;;;4.10;99.90;;;;;;5134125;27;20223;-81
2022/05/31 03:51:26;;;;;;;3.00;2.70;;;4.10;99.90;;;;;;5111032;28;20781;-81
2022/05/31 03:53:58;;;;;;;4.13;2.90;;;4.10;99.90;;;;;;5110551;27;20697;-80
2022/05/31 03:56:47;;;;;;;4.70;2.70;;;4.10;99.90;;;;;;5131567;27;20220;-81
2022/05/31 03:59:15;;;;;;;3.73;2.80;;;4.10;99.90;;;;;;5110356;27;20220;-80
2022/05/31 04:01:43;;;;;;;3.63;3.00;;;4.10;99.90;;;;;;5112902;27;20221;-81
2022/05/31 04:04:10;;;;;;;4.13;2.80;;;4.10;99.90;;;;;;5129739;27;20228;-81
2022/05/31 04:06:38;;;;;;;3.73;2.90;;;4.10;99.90;;;;;;5110248;27;20216;-81
2022/05/31 04:09:05;;;;;;;3.10;2.80;;;4.20;99.90;;;;;;5109119;27;20217;-80
2022/05/31 04:11:32;;;;;;;3.37;2.77;;;4.20;99.90;;;;;;5106173;27;20299;-80
2022/05/31 04:14:03;;;;;;;5.07;3.40;;;4.20;99.90;;;;;;5100818;27;20277;-80
2022/05/31 04:16:52;;;;;;;4.03;3.20;;;4.20;99.90;;;;;;5131214;27;20224;-81
2022/05/31 04:19:19;;;;;;;4.07;2.97;;;4.30;99.90;;;;;;5126160;27;20215;-82
2022/05/31 04:21:45;;;;;;;5.23;3.43;;;4.30;99.90;;;;;;5113313;27;20223;-80
2022/05/31 04:24:13;;;;;;;5.07;3.10;;;4.40;99.90;;;;;;5115005;27;20223;-80
2022/05/31 04:27:01;;;;;;;4.93;3.43;;;4.40;99.90;;;;;;5117785;27;20244;-82
2022/05/31 04:29:47;;;;;;;4.90;3.27;;;4.50;99.90;;;;;;5124142;27;20250;-80
2022/05/31 04:32:33;;;;;;;4.00;3.37;;;4.60;99.90;;;;;;5106912;27;20310;-78
2022/05/31 04:35:16;;;;;;;4.57;3.73;;;4.60;99.90;;;;;;5093930;27;20223;-80
2022/05/31 04:37:43;;;;;;;6.37;4.67;;;4.70;99.90;;;;;;5117067;27;20222;-80
2022/05/31 04:40:30;;;;;;;6.57;4.20;;;4.70;99.90;;;;;;5122047;27;20945;-79
2022/05/31 04:43:28;;;;;;;4.97;4.33;;;4.80;99.90;;;;;;5097851;27;20803;-79
2022/05/31 04:46:11;;;;;;;4.50;3.90;;;4.90;99.90;;;;;;5114575;27;20218;-80
2022/05/31 04:48:45;;;;;;;5.17;3.70;;;5.00;99.90;;;;;;5122142;27;20649;-79
2022/05/31 04:51:13;;;;;;;5.40;4.50;;;5.00;99.90;;;;;;5099181;28;20216;-79
2022/05/31 04:53:51;;;;;;;6.07;4.53;;;5.10;99.90;;;;;;5104669;27;20273;-79
2022/05/31 04:56:30;;;;;;;8.80;5.33;;;5.20;99.90;;;;;;5105789;27;20223;-79
2022/05/31 04:59:04;;;;;;;6.20;4.97;;;5.30;99.90;;;;;;5098924;27;20281;-78
2022/05/31 05:01:31;;;;;;;7.43;5.00;;;5.40;99.90;;;;;;5101495;27;20306;-77
2022/05/31 05:04:02;;;;;;;5.83;4.60;;;5.50;99.90;;;;;;5100333;27;20225;-78
2022/05/31 05:06:32;;;;;;;5.93;4.80;;;5.50;99.90;;;;;;5103308;27;20224;-79
2022/05/31 05:09:00;;;;;;;9.93;6.07;;;5.60;99.90;;;;;;5096686;27;20793;-78
2022/05/31 05:11:27;;;;;;;8.67;6.30;;;5.70;99.90;;;;;;5094575;27;20220;-78
2022/05/31 05:14:04;;;;;;;8.23;5.53;;;5.80;99.90;;;;;;5096522;27;20216;-78
2022/05/31 05:16:57;;;;;;;9.80;5.80;;;5.90;99.90;;;;;;5117624;27;20223;-80
2022/05/31 05:19:25;;;;;;;8.73;6.33;;;6.00;99.90;;;;;;5102890;27;20293;-78
2022/05/31 05:21:58;;;;;;;8.17;6.17;;;6.10;99.90;;;;;;5103280;27;20235;-79
2022/05/31 05:24:25;;;;;;;8.50;5.93;;;6.20;99.90;;;;;;5101229;27;20242;-79
2022/05/31 05:27:11;;;;;;;8.10;4.90;;;6.30;99.90;;;;;;5105236;27;20236;-79
2022/05/31 05:32:46;;;;;;;6.83;5.47;;;6.40;99.90;;;;;;5068791;27;20221;-79
2022/05/31 05:35:31;;;;;;;10.43;5.63;;;6.60;99.90;;;;;;5100725;27;20686;-78
2022/05/31 05:38:07;;;;;;;6.73;5.20;;;6.70;99.90;;;;;;5103111;27;20664;-78
2022/05/31 05:40:41;;;;;;;8.97;4.97;;;6.80;99.90;;;;;;5101600;27;20212;-78
2022/05/31 05:43:10;;;;;;;6.43;4.50;;;6.90;99.90;;;;;;5097605;27;20284;-77
2022/05/31 05:45:57;;;;;;;5.57;4.60;;;7.00;99.90;;;;;;5103005;27;20774;-78
2022/05/31 05:48:24;;;;;;;5.87;3.60;;;7.10;99.90;;;;;;5104896;27;20687;-78
2022/05/31 05:50:52;;;;;;;4.83;4.00;;;7.20;99.90;;;;;;5113123;27;20318;-78
2022/05/31 05:53:39;;;;;;;4.60;3.40;;;7.40;99.90;;;;;;5081924;27;20222;-78
2022/05/31 05:56:25;;;;;;;4.63;3.00;;;7.50;99.90;;;;;;5106747;27;20859;-78
2022/05/31 05:59:17;;;;;;;5.33;2.60;;;7.60;99.90;;;;;;5067492;27;20316;-78
2022/05/31 06:02:18;;;;;;;2.27;1.97;;;7.70;99.90;;;;;;5122134;27;20237;-78
2022/05/31 06:05:09;;;;;;;3.67;2.00;;;7.80;99.90;;;;;;5124822;27;20231;-79
2022/05/31 06:07:42;;;;;;;3.60;2.13;;;7.90;99.90;;;;;;5098850;27;20225;-78
2022/05/31 06:10:14;;;;;;;2.37;2.10;;;8.00;99.90;;;;;;5099893;27;20632;-78
2022/05/31 06:12:46;;;;;;;3.53;2.07;;;8.10;99.90;;;;;;5095805;27;20220;-78
2022/05/31 06:15:18;;;;;;;2.50;1.60;;;8.30;99.90;;;;;;5120206;27;20407;-79
2022/05/31 06:17:47;;;;;;;2.43;1.90;;;8.30;99.90;;;;;;5118303;27;20254;-78
2022/05/31 06:20:15;;;;;;;2.43;1.60;;;8.40;99.90;;;;;;5113533;27;20241;-78
2022/05/31 06:22:43;;;;;;;2.93;2.13;;;8.60;99.90;;;;;;5109712;27;20242;-78
2022/05/31 06:25:20;;;;;;;4.03;2.10;;;8.60;99.90;;;;;;5104900;27;20716;-79
2022/05/31 06:28:06;;;;;;;3.87;2.47;;;8.80;99.90;;;;;;5113707;27;20765;-78
2022/05/31 06:30:33;;;;;;;3.93;2.30;;;9.00;99.90;;;;;;5123531;27;20234;-78
2022/05/31 06:33:00;;;;;;;3.47;2.13;;;9.20;99.90;;;;;;5103457;27;20900;-78
2022/05/31 06:35:27;;;;;;;3.17;2.03;;;9.40;99.90;;;;;;5105180;27;20290;-79
2022/05/31 06:38:06;;;;;;;2.47;2.00;;;9.70;99.90;;;;;;5094922;28;20278;-78
2022/05/31 06:40:33;;;;;;;2.83;1.83;;;9.90;99.90;;;;;;5103878;27;20217;-79
2022/05/31 06:43:18;;;;;;;2.97;1.70;;;10.20;99.90;;;;;;5113250;27;20336;-78
2022/05/31 06:46:12;;;;;;;3.10;1.60;;;10.40;99.90;;;;;;5112795;27;20307;-79
2022/05/31 06:48:59;;;;;;;4.90;2.37;;;10.60;99.90;;;;;;5120623;27;20227;-78
2022/05/31 06:58:04;;;;;;;2.23;1.87;;;11.10;99.90;;;;;;5118633;27;20228;-78
2022/05/31 07:00:34;;;;;;;1.63;1.40;;;11.30;99.90;;;;;;5105963;27;20226;-79
2022/05/31 07:03:02;;;;;;;2.73;1.23;;;11.60;99.90;;;;;;5101242;27;20232;-79
2022/05/31 07:05:39;;;;;;;2.83;1.03;;;12.00;99.90;;;;;;5102814;27;20900;-78
2022/05/31 07:08:08;;;;;;;2.50;1.50;;;12.50;99.90;;;;;;5102487;27;20249;-78
2022/05/31 07:11:07;;;;;;;2.83;1.23;;;13.00;99.90;;;;;;5100905;27;20221;-78
2022/05/31 07:13:53;;;;;;;2.47;1.20;;;13.70;99.90;;;;;;5115238;27;20237;-78
2022/05/31 07:16:26;;;;;;;2.33;1.10;;;14.30;99.90;;;;;;5117193;27;20230;-79
2022/05/31 07:19:15;;;;;;;3.10;1.20;;;14.80;99.90;;;;;;5119203;27;20243;-79
2022/05/31 07:21:44;;;;;;;1.50;0.80;;;15.50;99.90;;;;;;5091412;28;20222;-78
2022/05/31 07:24:12;;;;;;;1.80;0.80;;;16.10;99.30;;;;;;5122052;27;20317;-79
2022/05/31 07:26:54;;;;;;;1.30;0.83;;;16.70;98.20;;;;;;5103903;27;20712;-78
2022/05/31 07:29:22;;;;;;;3.37;0.80;;;17.30;97.70;;;;;;5102036;28;20697;-79
2022/05/31 07:31:49;;;;;;;1.23;0.70;;;17.80;97.30;;;;;;5106672;28;20316;-79
2022/05/31 07:34:17;;;;;;;4.43;1.10;;;18.20;95.00;;;;;;5107032;27;20220;-79
2022/05/31 07:36:45;;;;;;;1.33;0.90;;;18.70;94.20;;;;;;5099879;27;20745;-79
2022/05/31 07:39:15;;;;;;;2.60;1.27;;;19.20;94.10;;;;;;5102990;27;20224;-80
2022/05/31 07:41:45;;;;;;;1.23;0.80;;;19.60;90.60;;;;;;5101347;28;20222;-80
2022/05/31 07:44:15;;;;;;;2.03;1.07;;;20.00;91.90;;;;;;5105151;28;20699;-79
2022/05/31 07:46:42;;;;;;;1.70;0.87;;;20.20;90.80;;;;;;5099564;28;20221;-81
2022/05/31 07:49:10;;;;;;;1.93;1.10;;;20.30;90.60;;;;;;5098291;27;20224;-79
2022/05/31 07:52:07;;;;;;;2.27;0.80;;;20.30;89.90;;;;;;5107858;27;20325;-79
2022/05/31 07:55:07;;;;;;;2.63;1.10;;;20.20;87.00;;;;;;5114999;27;20534;-79
2022/05/31 08:01:10;;;;;;;2.60;1.07;;;20.20;88.00;;;;;;5120657;27;20236;-79
2022/05/31 08:03:38;;;;;;;1.65;1.08;;;20.40;87.70;;;;;;5100631;27;20219;-79
2022/05/31 08:06:07;;;;;;;3.60;1.10;;;20.50;87.10;;;;;;5110634;27;20229;-79
2022/05/31 08:08:34;;;;;;;1.35;0.95;;;20.80;86.80;;;;;;5101040;27;20221;-79
2022/05/31 08:11:04;;;;;;;2.10;1.00;;;21.10;86.60;;;;;;5105970;27;20357;-79
2022/05/31 08:13:30;;;;;;;1.75;1.00;;;21.40;84.00;;;;;;5115477;27;20316;-79
2022/05/31 08:15:58;;;;;;;1.30;1.02;;;21.70;84.80;;;;;;5124785;27;20229;-80
2022/05/31 08:18:26;;;;;;;1.70;1.02;;;22.00;80.60;;;;;;5124535;27;20726;-78
2022/05/31 08:20:58;;;;;;;1.10;0.90;;;22.30;82.50;;;;;;5126321;27;20218;-79
2022/05/31 08:23:25;;;;;;;5.15;1.00;;;22.40;79.60;;;;;;5108693;27;21110;-80
2022/05/31 08:25:54;;;;;;;1.77;1.00;;;22.60;80.00;;;;;;5111099;27;20277;-79
2022/05/31 08:28:20;;;;;;;2.67;0.90;;;22.60;79.60;;;;;;5124808;27;20225;-79
2022/05/31 08:30:49;;;;;;;2.03;0.85;;;22.80;79.40;;;;;;5123004;27;20217;-79
2022/05/31 08:33:16;;;;;;;2.28;0.70;;;23.00;78.70;;;;;;5126903;27;20249;-79
2022/05/31 08:35:44;;;;;;;1.60;0.82;;;23.20;78.90;;;;;;5107825;27;20225;-80
2022/05/31 08:38:11;;;;;;;1.75;0.98;;;23.30;76.30;;;;;;5123085;27;20279;-79
2022/05/31 08:40:43;;;;;;;1.15;0.98;;;23.40;77.40;;;;;;5108649;27;20221;-79
2022/05/31 08:43:14;;;;;;;1.70;0.93;;;23.30;74.90;;;;;;5101309;27;20256;-81
2022/05/31 08:45:48;;;;;;;2.17;1.05;;;23.10;75.20;;;;;;5117173;27;20222;-80
2022/05/31 08:48:26;;;;;;;2.08;1.15;;;22.70;74.90;;;;;;5112637;27;20228;-80
2022/05/31 08:56:56;;;;;;;3.05;1.40;;;22.00;74.50;;;;;;5122784;27;20217;-78
2022/05/31 08:56:57;;;;;;;1.30;1.20;;;21.70;74.30;;;;;;5105999;27;20221;-78
2022/05/31 08:59:33;;;;;;;2.15;1.35;;;21.40;75.90;;;;;;5105565;27;20301;-79
2022/05/31 09:02:03;;;;;;;1.95;1.20;;;21.20;74.60;;;;;;5110214;27;20637;-80
2022/05/31 09:04:37;;;;;;;2.30;1.00;;;21.00;74.40;;;;;;5107339;27;20244;-79
2022/05/31 09:07:09;;;;;;;2.55;1.10;;;20.90;72.60;;;;;;5126284;27;20264;-79
2022/05/31 09:09:42;;;;;;;1.88;1.20;;;20.90;74.60;;;;;;5105201;27;20244;-79
2022/05/31 09:12:16;;;;;;;2.70;1.85;;;21.00;74.30;;;;;;5125182;27;20245;-79
2022/05/31 09:14:49;;;;;;;2.60;1.40;;;21.00;74.00;;;;;;5115887;27;20226;-79
2022/05/31 09:17:24;;;;;;;2.33;1.20;;;21.00;73.50;;;;;;5092089;27;20255;-79
2022/05/31 09:19:57;;;;;;;3.13;1.15;;;21.00;74.50;;;;;;5120182;27;20848;-79
2022/05/31 09:22:26;;;;;;;2.92;1.20;;;20.90;74.10;;;;;;5097034;28;20285;-79
2022/05/31 09:24:52;;;;;;;3.27;1.30;;;20.80;73.20;;;;;;5126285;27;20225;-79
2022/05/31 09:27:25;;;;;;;2.75;1.38;;;20.80;73.50;;;;;;5105752;27;20236;-79
2022/05/31 09:30:03;;;;;;;3.42;1.23;;;20.90;73.20;;;;;;5123323;27;20228;-79
2022/05/31 09:32:48;;;;;;;2.30;1.80;;;21.20;74.50;;;;;;5114626;27;20228;-81
2022/05/31 09:35:40;;;;;;;2.53;1.73;;;21.50;73.70;;;;;;5129762;27;20237;-81
2022/05/31 09:38:31;;;;;;;3.20;1.67;;;21.80;73.40;;;;;;5098758;27;20230;-82
2022/05/31 09:41:07;;;;;;;3.13;1.60;;;22.00;71.50;;;;;;5134302;27;20287;-82
2022/05/31 09:43:40;;;;;;;2.83;1.30;;;22.20;71.00;;;;;;5115446;27;20229;-82
2022/05/31 09:46:12;;;;;;;1.80;1.50;;;22.20;70.10;;;;;;5110942;27;20221;-82
2022/05/31 09:48:46;;;;;;;1.60;1.50;;;22.20;70.30;;;;;;5112610;27;20225;-82
2022/05/31 09:51:23;;;;;;;2.30;1.20;;;22.00;69.30;;;;;;5117336;27;20577;-83
2022/05/31 09:57:07;;;;;;;2.25;1.50;;;21.80;68.60;;;;;;5090957;27;20212;-81
2022/05/31 10:00:00;;;;;;;2.97;1.52;;;21.60;69.80;;;;;;5134372;27;20231;-82
2022/05/31 10:02:58;;;;;;;1.87;1.30;;;21.30;69.20;;;;;;5135100;27;20236;-82
2022/05/31 10:05:25;;;;;;;2.47;1.37;;;21.10;68.90;;;;;;5114476;27;20244;-82
2022/05/31 10:07:53;;;;;;;3.67;1.30;;;21.00;70.40;;;;;;5116803;27;20304;-82
2022/05/31 10:10:28;;;;;;;2.90;1.30;;;20.90;69.70;;;;;;5116071;27;20384;-82
2022/05/31 10:12:57;;;;;;;2.10;1.30;;;20.80;68.60;;;;;;5115370;27;20229;-82
2022/05/31 10:15:42;;;;;;;2.47;1.23;;;20.80;69.70;;;;;;5135337;27;22496;-82
2022/05/31 10:18:11;;;;;;;2.87;1.20;;;20.70;70.00;;;;;;5116651;27;20394;-82
2022/05/31 10:20:51;;;;;;;3.43;1.30;;;20.70;70.10;;;;;;5135165;27;20721;-81
2022/05/31 10:23:22;;;;;;;2.17;1.40;;;20.70;70.00;;;;;;5115366;27;20229;-81
2022/05/31 10:26:27;;;;;;;2.07;1.10;;;20.80;69.80;;;;;;5087589;27;20229;-82
2022/05/31 10:29:34;;;;;;;3.78;1.00;;;21.00;69.50;;;;;;5116006;27;20228;-81
2022/05/31 10:32:27;;;;;;;2.13;1.20;;;21.20;69.20;;;;;;5108399;27;20221;-83
2022/05/31 10:35:10;;;;;;;2.27;1.20;;;21.30;68.40;;;;;;5115738;27;20219;-82
2022/05/31 10:37:37;;;;;;;3.30;1.35;;;21.40;68.10;;;;;;5114349;27;20302;-82
2022/05/31 10:40:08;;;;;;;1.38;1.23;;;21.50;68.50;;;;;;5133418;27;20230;-82
2022/05/31 10:42:39;;;;;;;2.50;1.40;;;21.50;67.60;;;;;;5132347;27;20293;-82
2022/05/31 10:45:08;;;;;;;3.03;1.10;;;21.50;66.20;;;;;;5109959;27;20268;-81
2022/05/31 10:47:35;;;;;;;1.85;1.20;;;21.50;66.40;;;;;;5118225;27;20224;-82
2022/05/31 10:50:04;;;;;;;2.30;1.38;;;21.50;67.20;;;;;;5121643;27;20230;-81
2022/05/31 10:52:39;;;;;;;1.63;1.20;;;21.50;65.90;;;;;;5113075;28;20286;-82
2022/05/31 10:55:29;;;;;;;2.28;1.60;;;21.60;66.10;;;;;;5112663;27;20233;-81
2022/05/31 10:58:12;;;;;;;2.78;1.60;;;21.70;65.70;;;;;;5132269;27;20278;-81
2022/05/31 11:00:45;;;;;;;2.60;1.33;;;21.70;65.30;;;;;;5112684;27;20228;-83
2022/05/31 11:03:30;;;;;;;3.28;1.35;;;21.80;66.30;;;;;;5121958;27;20336;-83
2022/05/31 11:06:15;;;;;;;3.20;1.38;;;22.00;66.00;;;;;;5120315;28;20229;-84
2022/05/31 11:12:07;;;;;;;1.40;1.30;;;22.40;64.40;;;;;;5113291;28;20214;-84
2022/05/31 11:15:01;;;;;;;4.78;1.30;;;22.70;64.50;;;;;;5133390;27;20225;-83
2022/05/31 11:17:50;;;;;;;2.35;1.50;;;22.90;62.30;;;;;;5115052;28;20347;-84
2022/05/31 11:20:21;;;;;;;1.42;1.25;;;23.10;65.10;;;;;;5125894;27;20631;-83
2022/05/31 11:22:57;;;;;;;3.03;1.33;;;23.40;65.10;;;;;;5138923;27;20209;-83
2022/05/31 11:25:39;;;;;;;2.67;1.30;;;23.70;64.00;;;;;;5118889;28;20288;-83
2022/05/31 11:28:19;;;;;;;1.50;1.10;;;24.00;63.20;;;;;;5109116;27;20230;-83
2022/05/31 11:31:02;;;;;;;1.42;1.02;;;24.20;62.50;;;;;;5141925;27;20220;-84
2022/05/31 11:33:40;;;;;;;2.05;1.13;;;24.40;60.20;;;;;;5135500;27;20253;-83
2022/05/31 11:36:18;;;;;;;1.65;1.17;;;24.50;61.20;;;;;;5112304;27;20274;-83
2022/05/31 11:39:00;;;;;;;1.88;1.10;;;24.70;58.90;;;;;;5119315;28;20251;-83
2022/05/31 11:41:35;;;;;;;1.65;1.00;;;24.80;58.50;;;;;;5119613;27;20297;-83
2022/05/31 11:44:38;;;;;;;3.55;1.27;;;24.90;58.00;;;;;;5119807;27;20260;-83
2022/05/31 11:47:21;;;;;;;2.17;1.20;;;24.90;57.50;;;;;;5151750;27;20264;-84
2022/05/31 11:49:58;;;;;;;1.45;1.10;;;24.90;57.50;;;;;;5155886;27;20228;-83
2022/05/31 11:52:43;;;;;;;2.45;1.20;;;25.00;58.30;;;;;;5120228;27;20262;-84
2022/05/31 11:55:29;;;;;;;2.53;1.20;;;25.00;55.60;;;;;;5114625;27;20364;-82
2022/05/31 11:58:08;;;;;;;2.42;1.00;;;25.00;56.10;;;;;;5133976;27;20690;-82
2022/05/31 12:00:40;;;;;;;3.35;1.27;;;24.90;54.80;;;;;;5133375;27;20228;-81
2022/05/31 12:03:16;;;;;;;1.40;1.15;;;24.90;56.10;;;;;;5115292;27;20228;-82
2022/05/31 12:05:48;;;;;;;2.38;0.90;;;24.80;54.40;;;;;;5118302;27;20278;-81
2022/05/31 12:08:20;;;;;;;0.90;0.80;;;24.80;55.60;;;;;;5105334;27;20245;-81
2022/05/31 12:10:50;;;;;;;1.65;1.15;;;24.80;57.10;;;;;;5132655;27;20245;-82
2022/05/31 12:13:18;;;;;;;1.33;0.95;;;24.80;56.10;;;;;;5129340;27;20298;-81
2022/05/31 12:15:47;;;;;;;2.67;1.00;;;24.70;56.60;;;;;;5130231;27;20222;-81
2022/05/31 12:18:24;;;;;;;3.17;0.90;;;24.60;55.70;;;;;;5113901;27;20225;-81
2022/05/31 12:20:56;;;;;;;2.25;0.93;;;24.40;56.50;;;;;;5109633;27;20528;-82
2022/05/31 12:23:32;;;;;;;1.63;1.10;;;24.30;56.90;;;;;;5112112;27;20217;-82
2022/05/31 12:26:00;;;;;;;2.65;0.93;;;24.10;56.80;;;;;;5104563;27;20221;-82
2022/05/31 12:28:33;;;;;;;2.00;0.98;;;24.00;56.40;;;;;;5131513;27;20225;-82
2022/05/31 12:31:05;;;;;;;1.38;1.00;;;24.00;56.20;;;;;;5116533;27;20210;-81
2022/05/31 12:33:44;;;;;;;1.75;1.00;;;24.00;55.40;;;;;;5122357;27;20304;-82
2022/05/31 12:36:12;;;;;;;1.20;0.82;;;24.00;54.90;;;;;;5131019;27;20312;-81
2022/05/31 12:39:04;;;;;;;1.85;1.13;;;24.00;55.50;;;;;;5110820;27;20554;-82
2022/05/31 12:41:38;;;;;;;1.27;0.95;;;23.90;54.70;;;;;;5127112;27;20301;-81
2022/05/31 12:44:11;;;;;;;1.13;0.80;;;24.00;55.60;;;;;;5129052;27;20239;-82
2022/05/31 12:46:41;;;;;;;1.90;0.95;;;24.00;55.20;;;;;;5132069;27;20217;-82
2022/05/31 12:49:21;;;;;;;1.40;0.90;;;24.10;54.50;;;;;;5106041;27;20221;-82
2022/05/31 12:52:29;;;;;;;1.58;0.80;;;24.20;53.60;;;;;;5132272;27;20231;-82
2022/05/31 12:54:58;;;;;;;1.20;0.90;;;24.20;54.40;;;;;;5128582;27;20517;-83
2022/05/31 13:00:28;;;;;;;1.60;0.98;;;24.10;53.60;;;;;;5107095;27;20263;-83
2022/05/31 13:02:56;;;;;;;1.30;0.70;;;23.90;52.90;;;;;;5123685;27;20251;-82
2022/05/31 13:05:38;;;;;;;2.10;0.70;;;23.50;52.50;;;;;;5118574;27;20240;-82
2022/05/31 13:08:41;;;;;;;2.25;1.08;;;23.10;52.20;;;;;;5116014;27;20225;-82
2022/05/31 13:19:42;;;;;;;1.98;0.93;;;21.90;52.80;;;;;;5114305;27;20343;-83
2022/05/31 13:22:16;;;;;;;2.67;1.00;;;21.80;53.30;;;;;;5104053;27;20221;-82
2022/05/31 13:24:47;;;;;;;1.27;0.60;;;21.70;53.30;;;;;;5114747;27;20216;-82
2022/05/31 13:27:31;;;;;;;1.20;0.90;;;21.70;55.10;;;;;;5115450;27;20573;-82
2022/05/31 13:30:05;;;;;;;1.55;0.80;;;21.70;55.20;;;;;;5113916;27;20217;-82
2022/05/31 13:32:34;;;;;;;1.40;1.08;;;21.80;55.00;;;;;;5113527;27;20240;-82
2022/05/31 13:35:13;;;;;;;1.92;0.90;;;21.90;55.30;;;;;;5120943;27;20320;-82
2022/05/31 13:37:58;;;;;;;2.15;0.90;;;21.80;54.80;;;;;;5118753;27;20227;-80
2022/05/31 13:40:32;;;;;;;1.42;1.20;;;21.60;54.70;;;;;;5101158;27;20252;-80
2022/05/31 13:43:01;;;;;;;2.67;1.10;;;21.50;54.60;;;;;;5107463;27;20218;-80
2022/05/31 13:45:30;;;;;;;1.45;1.10;;;21.40;55.00;;;;;;5129533;27;20231;-80
2022/05/31 13:47:59;;;;;;;1.30;0.90;;;21.20;55.40;;;;;;5105473;27;20260;-80
2022/05/31 13:50:38;;;;;;;2.05;1.10;;;21.10;55.40;;;;;;5108915;28;20267;-80
2022/05/31 13:53:10;;;;;;;1.47;1.00;;;21.00;55.90;;;;;;5118884;27;20378;-79
2022/05/31 13:55:37;;;;;;;2.00;0.70;;;21.00;56.20;;;;;;5129148;27;20285;-80
2022/05/31 13:58:07;;;;;;;2.10;0.80;;;20.90;56.60;;;;;;5109784;27;20661;-81
2022/05/31 14:00:37;;;;;;;1.42;0.93;;;21.00;56.90;;;;;;5132881;27;20232;-83
2022/05/31 14:03:12;;;;;;;1.73;0.90;;;21.00;57.10;;;;;;5116543;27;20225;-83
2022/05/31 14:05:43;;;;;;;2.03;0.80;;;21.10;57.20;;;;;;5109390;27;20281;-82
2022/05/31 14:08:11;;;;;;;1.23;0.60;;;21.20;56.80;;;;;;5132450;27;20224;-84